sensor_id;sensor_type;location;lat;lon;timestamp;temperature;humidity
33699;DHT22;20032;52.436;13.312;2022-09-29T00:01:46;8.90;99.90
33699;DHT22;20032;52.436;13.312;2022-09-29T00:04:12;8.90;99.90
33699;DHT22;20032;52.436;13.312;2022-09-29T00:06:38;8.80;99.90
33699;DHT22;20032;52.436;13.312;2022-09-29T00:09:03;8.90;99.90
33699;DHT22;20032;52.436;13.312;2022-09-29T00:11:29;8.80;99.90
33699;DHT22;20032;52.436;13.312;2022-09-29T00:13:54;8.80;99.90
33699;DHT22;20032;52.436;13.312;2022-09-29T00:16:20;8.80;99.90
33699;DHT22;20032;52.436;13.312;2022-09-29T00:18:45;8.80;99.90
33699;DHT22;20032;52.436;13.312;2022-09-29T00:21:14;8.70;99.90
33699;DHT22;20032;52.436;13.312;2022-09-29T00:23:40;8.60;99.90
33699;DHT22;20032;52.436;13.312;2022-09-29T00:26:09;8.60;99.90
33699;DHT22;20032;52.436;13.312;2022-09-29T00:28:37;8.60;99.90
33699;DHT22;20032;52.436;13.312;2022-09-29T00:31:04;8.50;99.90
33699;DHT22;20032;52.436;13.312;2022-09-29T00:33:30;8.40;99.90
33699;DHT22;20032;52.436;13.312;2022-09-29T00:35:58;8.30;99.90
33699;DHT22;20032;52.436;13.312;2022-09-29T00:38:25;8.30;99.90
33699;DHT22;20032;52.436;13.312;2022-09-29T00:40:50;8.30;99.90
33699;DHT22;20032;52.436;13.312;2022-09-29T00:43:22;8.30;99.90
33699;DHT22;20032;52.436;13.312;2022-09-29T00:45:51;8.40;99.90
33699;DHT22;20032;52.436;13.312;2022-09-29T00:48:27;8.30;99.90
33699;DHT22;20032;52.436;13.312;2022-09-29T00:50:55;8.40;99.90
33699;DHT22;20032;52.436;13.312;2022-09-29T00:53:22;8.40;99.90
33699;DHT22;20032;52.436;13.312;2022-09-29T00:55:54;8.40;99.90
33699;DHT22;20032;52.436;13.312;2022-09-29T01:00:59;8.40;99.90
33699;DHT22;20032;52.436;13.312;2022-09-29T01:03:28;8.50;99.90
33699;DHT22;20032;52.436;13.312;2022-09-29T01:05:58;8.40;99.90
33699;DHT22;20032;52.436;13.312;2022-09-29T01:09:26;8.40;99.90
33699;DHT22;20032;52.436;13.312;2022-09-29T01:11:11;8.40;99.90
33699;DHT22;20032;52.436;13.312;2022-09-29T01:13:38;8.50;99.90
33699;DHT22;20032;52.436;13.312;2022-09-29T01:16:05;8.50;99.90
33699;DHT22;20032;52.436;13.312;2022-09-29T01:18:31;8.50;99.90
33699;DHT22;20032;52.436;13.312;2022-09-29T01:21:12;8.50;99.90
33699;DHT22;20032;52.436;13.312;2022-09-29T01:26:49;8.50;99.90
33699;DHT22;20032;52.436;13.312;2022-09-29T01:29:54;8.50;99.90
33699;DHT22;20032;52.436;13.312;2022-09-29T01:32:11;8.60;99.90
33699;DHT22;20032;52.436;13.312;2022-09-29T01:34:45;8.50;99.90
33699;DHT22;20032;52.436;13.312;2022-09-29T01:37:22;8.50;99.90
33699;DHT22;20032;52.436;13.312;2022-09-29T01:40:01;8.60;99.90
33699;DHT22;20032;52.436;13.312;2022-09-29T01:42:35;8.60;99.90
33699;DHT22;20032;52.436;13.312;2022-09-29T01:45:25;8.60;99.90
33699;DHT22;20032;52.436;13.312;2022-09-29T01:47:59;8.50;99.90
33699;DHT22;20032;52.436;13.312;2022-09-29T01:50:30;8.50;99.90
33699;DHT22;20032;52.436;13.312;2022-09-29T01:53:02;8.40;99.90
33699;DHT22;20032;52.436;13.312;2022-09-29T01:55:31;8.40;99.90
33699;DHT22;20032;52.436;13.312;2022-09-29T01:58:01;8.40;99.90
33699;DHT22;20032;52.436;13.312;2022-09-29T02:00:34;8.30;99.90
33699;DHT22;20032;52.436;13.312;2022-09-29T02:03:08;8.30;99.90
33699;DHT22;20032;52.436;13.312;2022-09-29T02:05:43;8.30;99.90
33699;DHT22;20032;52.436;13.312;2022-09-29T02:08:13;8.40;99.90
33699;DHT22;20032;52.436;13.312;2022-09-29T02:10:47;8.40;99.90
33699;DHT22;20032;52.436;13.312;2022-09-29T02:13:15;8.40;99.90
33699;DHT22;20032;52.436;13.312;2022-09-29T02:15:45;8.30;99.90
33699;DHT22;20032;52.436;13.312;2022-09-29T02:18:16;8.30;99.90
33699;DHT22;20032;52.436;13.312;2022-09-29T02:20:45;8.40;99.90
33699;DHT22;20032;52.436;13.312;2022-09-29T02:23:11;8.50;99.90
33699;DHT22;20032;52.436;13.312;2022-09-29T02:25:38;8.60;99.90
33699;DHT22;20032;52.436;13.312;2022-09-29T02:28:05;8.60;99.90
33699;DHT22;20032;52.436;13.312;2022-09-29T02:30:31;8.60;99.90
33699;DHT22;20032;52.436;13.312;2022-09-29T02:32:57;8.50;99.90
33699;DHT22;20032;52.436;13.312;2022-09-29T02:35:23;8.50;99.90
33699;DHT22;20032;52.436;13.312;2022-09-29T02:38:04;8.50;99.90
33699;DHT22;20032;52.436;13.312;2022-09-29T02:40:44;8.50;99.90
33699;DHT22;20032;52.436;13.312;2022-09-29T02:43:54;8.40;99.90
33699;DHT22;20032;52.436;13.312;2022-09-29T02:46:30;8.30;99.90
33699;DHT22;20032;52.436;13.312;2022-09-29T02:49:22;8.30;99.90
33699;DHT22;20032;52.436;13.312;2022-09-29T02:51:56;8.40;99.90
33699;DHT22;20032;52.436;13.312;2022-09-29T02:54:32;8.60;99.90
33699;DHT22;20032;52.436;13.312;2022-09-29T02:57:07;8.50;99.90
33699;DHT22;20032;52.436;13.312;2022-09-29T02:59:46;8.50;99.90
33699;DHT22;20032;52.436;13.312;2022-09-29T03:02:15;8.60;99.90
33699;DHT22;20032;52.436;13.312;2022-09-29T03:04:47;8.50;99.90
33699;DHT22;20032;52.436;13.312;2022-09-29T03:07:12;8.50;99.90
33699;DHT22;20032;52.436;13.312;2022-09-29T03:09:37;8.50;99.90
33699;DHT22;20032;52.436;13.312;2022-09-29T03:12:03;8.50;99.90
33699;DHT22;20032;52.436;13.312;2022-09-29T03:14:29;8.50;99.90
33699;DHT22;20032;52.436;13.312;2022-09-29T03:16:54;8.50;99.90
33699;DHT22;20032;52.436;13.312;2022-09-29T03:19:20;8.50;99.90
33699;DHT22;20032;52.436;13.312;2022-09-29T03:21:45;8.60;99.90
33699;DHT22;20032;52.436;13.312;2022-09-29T03:24:11;8.70;99.90
33699;DHT22;20032;52.436;13.312;2022-09-29T03:26:36;8.70;99.90
33699;DHT22;20032;52.436;13.312;2022-09-29T03:29:02;8.60;99.90
33699;DHT22;20032;52.436;13.312;2022-09-29T03:31:27;8.60;99.90
33699;DHT22;20032;52.436;13.312;2022-09-29T03:33:53;8.60;99.90
33699;DHT22;20032;52.436;13.312;2022-09-29T03:36:18;8.60;99.90
33699;DHT22;20032;52.436;13.312;2022-09-29T03:38:43;8.70;99.90
33699;DHT22;20032;52.436;13.312;2022-09-29T03:41:11;8.70;99.90
33699;DHT22;20032;52.436;13.312;2022-09-29T03:43:36;8.70;99.90
33699;DHT22;20032;52.436;13.312;2022-09-29T03:46:02;8.70;99.90
33699;DHT22;20032;52.436;13.312;2022-09-29T03:48:29;8.70;99.90
33699;DHT22;20032;52.436;13.312;2022-09-29T03:50:55;8.70;99.90
33699;DHT22;20032;52.436;13.312;2022-09-29T03:53:21;8.60;99.90
33699;DHT22;20032;52.436;13.312;2022-09-29T03:55:47;8.70;99.90
33699;DHT22;20032;52.436;13.312;2022-09-29T03:58:13;8.60;99.90
33699;DHT22;20032;52.436;13.312;2022-09-29T04:00:39;8.60;99.90
33699;DHT22;20032;52.436;13.312;2022-09-29T04:03:04;8.70;99.90
33699;DHT22;20032;52.436;13.312;2022-09-29T04:05:31;8.60;99.90
33699;DHT22;20032;52.436;13.312;2022-09-29T04:07:56;8.60;99.90
33699;DHT22;20032;52.436;13.312;2022-09-29T04:10:22;8.60;99.90
33699;DHT22;20032;52.436;13.312;2022-09-29T04:12:47;8.70;99.90
33699;DHT22;20032;52.436;13.312;2022-09-29T04:15:13;8.70;99.90
33699;DHT22;20032;52.436;13.312;2022-09-29T04:17:38;8.60;99.90
33699;DHT22;20032;52.436;13.312;2022-09-29T04:20:04;8.60;99.90
33699;DHT22;20032;52.436;13.312;2022-09-29T04:22:29;8.60;99.90
33699;DHT22;20032;52.436;13.312;2022-09-29T04:24:55;8.50;99.90
33699;DHT22;20032;52.436;13.312;2022-09-29T04:27:21;8.60;99.90
33699;DHT22;20032;52.436;13.312;2022-09-29T04:29:47;8.50;99.90
33699;DHT22;20032;52.436;13.312;2022-09-29T04:32:12;8.50;99.90
33699;DHT22;20032;52.436;13.312;2022-09-29T04:34:38;8.50;99.90
33699;DHT22;20032;52.436;13.312;2022-09-29T04:37:04;8.60;99.90
33699;DHT22;20032;52.436;13.312;2022-09-29T04:39:31;8.60;99.90
33699;DHT22;20032;52.436;13.312;2022-09-29T04:41:57;8.60;99.90
33699;DHT22;20032;52.436;13.312;2022-09-29T04:44:22;8.60;99.90
33699;DHT22;20032;52.436;13.312;2022-09-29T04:46:50;8.60;99.90
33699;DHT22;20032;52.436;13.312;2022-09-29T04:49:16;8.50;99.90
33699;DHT22;20032;52.436;13.312;2022-09-29T04:51:42;8.60;99.90
33699;DHT22;20032;52.436;13.312;2022-09-29T04:54:07;8.60;99.90
33699;DHT22;20032;52.436;13.312;2022-09-29T04:56:33;8.70;99.90
33699;DHT22;20032;52.436;13.312;2022-09-29T04:58:59;8.60;99.90
33699;DHT22;20032;52.436;13.312;2022-09-29T05:01:24;8.50;99.90
33699;DHT22;20032;52.436;13.312;2022-09-29T05:03:50;8.40;99.90
33699;DHT22;20032;52.436;13.312;2022-09-29T05:06:16;8.40;99.90
33699;DHT22;20032;52.436;13.312;2022-09-29T05:08:42;8.30;99.90
33699;DHT22;20032;52.436;13.312;2022-09-29T05:11:09;8.40;99.90
33699;DHT22;20032;52.436;13.312;2022-09-29T05:13:35;8.40;99.90
33699;DHT22;20032;52.436;13.312;2022-09-29T05:16:02;8.50;99.90
33699;DHT22;20032;52.436;13.312;2022-09-29T05:18:28;8.40;99.90
33699;DHT22;20032;52.436;13.312;2022-09-29T05:20:54;8.40;99.90
33699;DHT22;20032;52.436;13.312;2022-09-29T05:23:19;8.50;99.90
33699;DHT22;20032;52.436;13.312;2022-09-29T05:25:45;8.50;99.90
33699;DHT22;20032;52.436;13.312;2022-09-29T05:28:11;8.60;99.90
33699;DHT22;20032;52.436;13.312;2022-09-29T05:30:37;8.50;99.90
33699;DHT22;20032;52.436;13.312;2022-09-29T05:33:04;8.50;99.90
33699;DHT22;20032;52.436;13.312;2022-09-29T05:35:29;8.60;99.90
33699;DHT22;20032;52.436;13.312;2022-09-29T05:37:55;8.60;99.90
33699;DHT22;20032;52.436;13.312;2022-09-29T05:40:21;8.60;99.90
33699;DHT22;20032;52.436;13.312;2022-09-29T05:42:49;8.60;99.90
33699;DHT22;20032;52.436;13.312;2022-09-29T05:45:15;8.50;99.90
33699;DHT22;20032;52.436;13.312;2022-09-29T05:47:41;8.60;99.90
33699;DHT22;20032;52.436;13.312;2022-09-29T05:50:08;8.60;99.90
33699;DHT22;20032;52.436;13.312;2022-09-29T05:52:33;8.60;99.90
33699;DHT22;20032;52.436;13.312;2022-09-29T05:54:59;8.60;99.90
33699;DHT22;20032;52.436;13.312;2022-09-29T05:57:24;8.50;99.90
33699;DHT22;20032;52.436;13.312;2022-09-29T05:59:50;8.50;99.90
33699;DHT22;20032;52.436;13.312;2022-09-29T06:02:15;8.40;99.90
33699;DHT22;20032;52.436;13.312;2022-09-29T06:04:43;8.30;99.90
33699;DHT22;20032;52.436;13.312;2022-09-29T06:07:09;8.30;99.90
33699;DHT22;20032;52.436;13.312;2022-09-29T06:09:35;8.40;99.90
33699;DHT22;20032;52.436;13.312;2022-09-29T06:12:02;8.50;99.90
33699;DHT22;20032;52.436;13.312;2022-09-29T06:14:27;8.60;99.90
33699;DHT22;20032;52.436;13.312;2022-09-29T06:16:53;8.60;99.90
33699;DHT22;20032;52.436;13.312;2022-09-29T06:19:19;8.60;99.90
33699;DHT22;20032;52.436;13.312;2022-09-29T06:21:45;8.60;99.90
33699;DHT22;20032;52.436;13.312;2022-09-29T06:24:10;8.70;99.90
33699;DHT22;20032;52.436;13.312;2022-09-29T06:26:36;8.70;99.90
33699;DHT22;20032;52.436;13.312;2022-09-29T06:29:02;8.70;99.90
33699;DHT22;20032;52.436;13.312;2022-09-29T06:31:29;8.70;99.90
33699;DHT22;20032;52.436;13.312;2022-09-29T06:33:59;8.70;99.90
33699;DHT22;20032;52.436;13.312;2022-09-29T06:36:45;8.70;99.90
33699;DHT22;20032;52.436;13.312;2022-09-29T06:39:30;8.70;99.90
33699;DHT22;20032;52.436;13.312;2022-09-29T06:41:56;8.70;99.90
33699;DHT22;20032;52.436;13.312;2022-09-29T06:44:23;8.70;99.90
33699;DHT22;20032;52.436;13.312;2022-09-29T06:46:49;8.80;99.90
33699;DHT22;20032;52.436;13.312;2022-09-29T06:49:17;8.80;99.90
33699;DHT22;20032;52.436;13.312;2022-09-29T06:51:44;8.80;99.90
33699;DHT22;20032;52.436;13.312;2022-09-29T06:54:11;8.80;99.90
33699;DHT22;20032;52.436;13.312;2022-09-29T06:56:38;8.70;99.90
33699;DHT22;20032;52.436;13.312;2022-09-29T06:59:04;8.80;99.90
33699;DHT22;20032;52.436;13.312;2022-09-29T07:01:30;8.80;99.90
33699;DHT22;20032;52.436;13.312;2022-09-29T07:03:57;8.80;99.90
33699;DHT22;20032;52.436;13.312;2022-09-29T07:06:27;8.90;99.90
33699;DHT22;20032;52.436;13.312;2022-09-29T07:08:54;9.00;99.90
33699;DHT22;20032;52.436;13.312;2022-09-29T07:11:20;9.00;99.90
33699;DHT22;20032;52.436;13.312;2022-09-29T07:13:46;9.10;99.90
33699;DHT22;20032;52.436;13.312;2022-09-29T07:16:13;9.10;99.90
33699;DHT22;20032;52.436;13.312;2022-09-29T07:18:40;9.00;99.90
33699;DHT22;20032;52.436;13.312;2022-09-29T07:21:08;9.00;99.90
33699;DHT22;20032;52.436;13.312;2022-09-29T07:23:35;9.10;99.90
33699;DHT22;20032;52.436;13.312;2022-09-29T07:26:02;9.00;99.90
33699;DHT22;20032;52.436;13.312;2022-09-29T07:28:28;9.10;99.90
33699;DHT22;20032;52.436;13.312;2022-09-29T07:31:08;9.00;99.90
33699;DHT22;20032;52.436;13.312;2022-09-29T07:33:34;9.10;99.90
33699;DHT22;20032;52.436;13.312;2022-09-29T07:36:00;9.20;99.90
33699;DHT22;20032;52.436;13.312;2022-09-29T07:38:29;9.20;99.90
33699;DHT22;20032;52.436;13.312;2022-09-29T07:41:05;9.30;99.90
33699;DHT22;20032;52.436;13.312;2022-09-29T07:43:31;9.30;99.90
33699;DHT22;20032;52.436;13.312;2022-09-29T07:45:58;9.30;99.90
33699;DHT22;20032;52.436;13.312;2022-09-29T07:48:27;9.40;99.90
33699;DHT22;20032;52.436;13.312;2022-09-29T07:51:00;9.40;99.90
33699;DHT22;20032;52.436;13.312;2022-09-29T07:53:26;9.50;99.90
33699;DHT22;20032;52.436;13.312;2022-09-29T07:55:52;9.50;99.90
33699;DHT22;20032;52.436;13.312;2022-09-29T07:58:17;9.50;99.90
33699;DHT22;20032;52.436;13.312;2022-09-29T08:00:43;9.60;99.90
33699;DHT22;20032;52.436;13.312;2022-09-29T08:03:08;9.60;99.90
33699;DHT22;20032;52.436;13.312;2022-09-29T08:05:34;9.60;99.90
33699;DHT22;20032;52.436;13.312;2022-09-29T08:08:01;9.70;99.90
33699;DHT22;20032;52.436;13.312;2022-09-29T08:10:29;9.70;99.90
33699;DHT22;20032;52.436;13.312;2022-09-29T08:12:55;9.70;99.90
33699;DHT22;20032;52.436;13.312;2022-09-29T08:15:21;9.60;99.90
33699;DHT22;20032;52.436;13.312;2022-09-29T08:17:51;9.70;99.90
33699;DHT22;20032;52.436;13.312;2022-09-29T08:20:18;9.70;99.90
33699;DHT22;20032;52.436;13.312;2022-09-29T08:22:43;9.80;99.90
33699;DHT22;20032;52.436;13.312;2022-09-29T08:25:09;9.90;99.90
33699;DHT22;20032;52.436;13.312;2022-09-29T08:27:34;10.00;99.90
33699;DHT22;20032;52.436;13.312;2022-09-29T08:30:01;10.10;99.90
33699;DHT22;20032;52.436;13.312;2022-09-29T08:32:26;10.20;99.90
33699;DHT22;20032;52.436;13.312;2022-09-29T08:34:52;10.30;99.90
33699;DHT22;20032;52.436;13.312;2022-09-29T08:37:17;10.30;99.90
33699;DHT22;20032;52.436;13.312;2022-09-29T08:39:43;10.30;99.90
33699;DHT22;20032;52.436;13.312;2022-09-29T08:42:28;10.40;99.90
33699;DHT22;20032;52.436;13.312;2022-09-29T08:45:00;10.50;99.90
33699;DHT22;20032;52.436;13.312;2022-09-29T08:47:38;10.70;99.90
33699;DHT22;20032;52.436;13.312;2022-09-29T08:52:42;10.80;99.90
33699;DHT22;20032;52.436;13.312;2022-09-29T08:57:46;11.00;99.90
33699;DHT22;20032;52.436;13.312;2022-09-29T09:00:17;11.00;99.90
33699;DHT22;20032;52.436;13.312;2022-09-29T09:05:46;11.00;99.90
33699;DHT22;20032;52.436;13.312;2022-09-29T09:08:31;11.10;99.90
33699;DHT22;20032;52.436;13.312;2022-09-29T09:11:18;11.20;99.90
33699;DHT22;20032;52.436;13.312;2022-09-29T09:15:13;11.20;99.90
33699;DHT22;20032;52.436;13.312;2022-09-29T09:19:46;11.30;99.90
33699;DHT22;20032;52.436;13.312;2022-09-29T09:22:21;11.40;99.90
33699;DHT22;20032;52.436;13.312;2022-09-29T09:25:16;11.50;99.90
33699;DHT22;20032;52.436;13.312;2022-09-29T09:27:45;11.60;99.90
33699;DHT22;20032;52.436;13.312;2022-09-29T09:30:15;11.70;99.90
33699;DHT22;20032;52.436;13.312;2022-09-29T09:32:49;11.80;99.90
33699;DHT22;20032;52.436;13.312;2022-09-29T09:35:23;11.90;99.90
33699;DHT22;20032;52.436;13.312;2022-09-29T09:37:52;11.80;99.90
33699;DHT22;20032;52.436;13.312;2022-09-29T09:40:23;11.80;99.90
33699;DHT22;20032;52.436;13.312;2022-09-29T09:42:53;11.80;99.90
33699;DHT22;20032;52.436;13.312;2022-09-29T09:48:16;12.00;99.90
33699;DHT22;20032;52.436;13.312;2022-09-29T09:50:44;12.00;99.90
33699;DHT22;20032;52.436;13.312;2022-09-29T09:53:14;12.20;99.90
33699;DHT22;20032;52.436;13.312;2022-09-29T09:55:44;12.30;99.90
33699;DHT22;20032;52.436;13.312;2022-09-29T09:58:27;12.40;99.90
33699;DHT22;20032;52.436;13.312;2022-09-29T10:01:00;12.40;99.90
33699;DHT22;20032;52.436;13.312;2022-09-29T10:03:27;12.40;99.90
33699;DHT22;20032;52.436;13.312;2022-09-29T10:05:53;12.10;99.90
33699;DHT22;20032;52.436;13.312;2022-09-29T10:08:39;12.00;99.90
33699;DHT22;20032;52.436;13.312;2022-09-29T10:11:25;12.20;99.90
33699;DHT22;20032;52.436;13.312;2022-09-29T10:13:59;12.30;99.90
33699;DHT22;20032;52.436;13.312;2022-09-29T10:16:31;12.30;99.90
33699;DHT22;20032;52.436;13.312;2022-09-29T10:18:58;12.40;99.90
33699;DHT22;20032;52.436;13.312;2022-09-29T10:21:43;12.40;99.90
33699;DHT22;20032;52.436;13.312;2022-09-29T10:24:29;12.50;99.90
33699;DHT22;20032;52.436;13.312;2022-09-29T10:26:58;12.60;99.90
33699;DHT22;20032;52.436;13.312;2022-09-29T10:29:32;12.60;99.90
33699;DHT22;20032;52.436;13.312;2022-09-29T10:34:35;12.60;99.90
33699;DHT22;20032;52.436;13.312;2022-09-29T10:37:04;12.70;99.90
33699;DHT22;20032;52.436;13.312;2022-09-29T10:39:43;12.90;99.90
33699;DHT22;20032;52.436;13.312;2022-09-29T10:42:30;13.00;99.90
33699;DHT22;20032;52.436;13.312;2022-09-29T10:47:32;13.10;99.90
33699;DHT22;20032;52.436;13.312;2022-09-29T10:50:07;13.30;99.90
33699;DHT22;20032;52.436;13.312;2022-09-29T10:52:36;13.60;99.90
33699;DHT22;20032;52.436;13.312;2022-09-29T10:55:03;13.70;99.90
33699;DHT22;20032;52.436;13.312;2022-09-29T10:57:32;13.90;99.90
33699;DHT22;20032;52.436;13.312;2022-09-29T10:59:58;14.00;99.90
33699;DHT22;20032;52.436;13.312;2022-09-29T11:02:29;14.10;99.90
33699;DHT22;20032;52.436;13.312;2022-09-29T11:04:59;13.90;99.90
33699;DHT22;20032;52.436;13.312;2022-09-29T11:07:27;13.80;99.90
33699;DHT22;20032;52.436;13.312;2022-09-29T11:09:54;13.60;99.90
33699;DHT22;20032;52.436;13.312;2022-09-29T11:12:26;13.60;99.90
33699;DHT22;20032;52.436;13.312;2022-09-29T11:14:52;13.60;99.90
33699;DHT22;20032;52.436;13.312;2022-09-29T11:17:25;13.60;99.90
33699;DHT22;20032;52.436;13.312;2022-09-29T11:19:53;13.60;99.90
33699;DHT22;20032;52.436;13.312;2022-09-29T11:28:32;13.70;99.90
33699;DHT22;20032;52.436;13.312;2022-09-29T11:31:11;13.80;99.90
33699;DHT22;20032;52.436;13.312;2022-09-29T11:33:54;13.80;99.90
33699;DHT22;20032;52.436;13.312;2022-09-29T11:36:42;13.80;99.90
33699;DHT22;20032;52.436;13.312;2022-09-29T11:39:45;13.90;99.90
33699;DHT22;20032;52.436;13.312;2022-09-29T11:42:46;14.00;99.90
33699;DHT22;20032;52.436;13.312;2022-09-29T11:45:19;13.90;99.90
33699;DHT22;20032;52.436;13.312;2022-09-29T11:48:43;13.90;99.90
33699;DHT22;20032;52.436;13.312;2022-09-29T11:51:18;13.90;99.90
33699;DHT22;20032;52.436;13.312;2022-09-29T11:56:39;14.40;99.90
33699;DHT22;20032;52.436;13.312;2022-09-29T12:03:11;14.40;99.90
33699;DHT22;20032;52.436;13.312;2022-09-29T12:04:59;14.30;99.90
33699;DHT22;20032;52.436;13.312;2022-09-29T12:10:20;14.70;99.90
33699;DHT22;20032;52.436;13.312;2022-09-29T12:12:58;15.00;99.90
33699;DHT22;20032;52.436;13.312;2022-09-29T12:15:43;14.70;99.90
33699;DHT22;20032;52.436;13.312;2022-09-29T12:18:17;14.40;99.90
33699;DHT22;20032;52.436;13.312;2022-09-29T12:20:46;14.20;99.90
33699;DHT22;20032;52.436;13.312;2022-09-29T12:23:15;14.10;99.90
33699;DHT22;20032;52.436;13.312;2022-09-29T12:26:01;14.10;99.90
33699;DHT22;20032;52.436;13.312;2022-09-29T12:28:37;14.00;99.90
33699;DHT22;20032;52.436;13.312;2022-09-29T12:31:15;13.90;99.90
33699;DHT22;20032;52.436;13.312;2022-09-29T12:33:46;13.90;99.90
33699;DHT22;20032;52.436;13.312;2022-09-29T12:36:37;13.80;99.90
33699;DHT22;20032;52.436;13.312;2022-09-29T12:39:17;13.80;99.90
33699;DHT22;20032;52.436;13.312;2022-09-29T12:41:51;13.80;99.90
33699;DHT22;20032;52.436;13.312;2022-09-29T12:44:30;13.80;99.90
33699;DHT22;20032;52.436;13.312;2022-09-29T12:47:51;13.90;99.90
33699;DHT22;20032;52.436;13.312;2022-09-29T12:50:10;14.00;99.90
33699;DHT22;20032;52.436;13.312;2022-09-29T12:53:08;15.10;99.90
33699;DHT22;20032;52.436;13.312;2022-09-29T12:55:49;16.60;99.90
33699;DHT22;20032;52.436;13.312;2022-09-29T12:58:44;17.30;99.90
33699;DHT22;20032;52.436;13.312;2022-09-29T13:01:20;17.00;99.90
33699;DHT22;20032;52.436;13.312;2022-09-29T13:07:16;17.00;99.90
33699;DHT22;20032;52.436;13.312;2022-09-29T13:12:05;16.30;99.90
33699;DHT22;20032;52.436;13.312;2022-09-29T13:13:18;15.90;99.90
33699;DHT22;20032;52.436;13.312;2022-09-29T13:16:58;15.50;99.90
33699;DHT22;20032;52.436;13.312;2022-09-29T13:24:22;15.30;99.90
33699;DHT22;20032;52.436;13.312;2022-09-29T13:27:07;15.30;99.90
33699;DHT22;20032;52.436;13.312;2022-09-29T13:30:15;15.20;99.90
33699;DHT22;20032;52.436;13.312;2022-09-29T13:32:26;15.40;99.90
33699;DHT22;20032;52.436;13.312;2022-09-29T13:34:56;15.50;99.90
33699;DHT22;20032;52.436;13.312;2022-09-29T13:37:25;15.40;99.90
33699;DHT22;20032;52.436;13.312;2022-09-29T13:39:54;15.50;99.90
33699;DHT22;20032;52.436;13.312;2022-09-29T13:42:42;15.30;99.90
33699;DHT22;20032;52.436;13.312;2022-09-29T13:48:02;15.20;99.90
33699;DHT22;20032;52.436;13.312;2022-09-29T13:50:47;15.10;99.90
33699;DHT22;20032;52.436;13.312;2022-09-29T13:55:53;14.80;99.90
33699;DHT22;20032;52.436;13.312;2022-09-29T13:58:23;14.60;99.90
33699;DHT22;20032;52.436;13.312;2022-09-29T14:00:49;14.60;99.90
33699;DHT22;20032;52.436;13.312;2022-09-29T14:03:54;14.50;99.90
33699;DHT22;20032;52.436;13.312;2022-09-29T14:06:17;14.50;99.90
33699;DHT22;20032;52.436;13.312;2022-09-29T14:09:04;14.50;99.90
33699;DHT22;20032;52.436;13.312;2022-09-29T14:11:34;14.50;99.90
33699;DHT22;20032;52.436;13.312;2022-09-29T14:14:07;14.30;99.90
33699;DHT22;20032;52.436;13.312;2022-09-29T14:16:54;14.20;99.90
33699;DHT22;20032;52.436;13.312;2022-09-29T14:19:33;14.20;99.90
33699;DHT22;20032;52.436;13.312;2022-09-29T14:22:04;14.20;99.90
33699;DHT22;20032;52.436;13.312;2022-09-29T14:27:28;14.40;99.90
33699;DHT22;20032;52.436;13.312;2022-09-29T14:30:12;14.30;99.90
33699;DHT22;20032;52.436;13.312;2022-09-29T14:36:29;14.10;99.90
33699;DHT22;20032;52.436;13.312;2022-09-29T14:38:21;14.10;99.90
33699;DHT22;20032;52.436;13.312;2022-09-29T14:43:57;14.10;99.90
33699;DHT22;20032;52.436;13.312;2022-09-29T14:46:35;14.10;99.90
33699;DHT22;20032;52.436;13.312;2022-09-29T14:49:48;14.10;99.90
33699;DHT22;20032;52.436;13.312;2022-09-29T14:53:01;14.10;99.90
33699;DHT22;20032;52.436;13.312;2022-09-29T14:56:47;14.10;99.90
33699;DHT22;20032;52.436;13.312;2022-09-29T14:59:40;14.20;99.90
33699;DHT22;20032;52.436;13.312;2022-09-29T15:01:27;14.20;99.90
33699;DHT22;20032;52.436;13.312;2022-09-29T15:03:56;14.10;99.90
33699;DHT22;20032;52.436;13.312;2022-09-29T15:06:25;14.20;99.90
33699;DHT22;20032;52.436;13.312;2022-09-29T15:09:14;14.20;99.90
33699;DHT22;20032;52.436;13.312;2022-09-29T15:11:43;14.20;99.90
33699;DHT22;20032;52.436;13.312;2022-09-29T15:14:31;14.20;99.90
33699;DHT22;20032;52.436;13.312;2022-09-29T15:17:22;14.30;99.90
33699;DHT22;20032;52.436;13.312;2022-09-29T15:23:59;14.40;99.90
33699;DHT22;20032;52.436;13.312;2022-09-29T15:28:31;14.20;99.90
33699;DHT22;20032;52.436;13.312;2022-09-29T15:30:48;14.20;99.90
33699;DHT22;20032;52.436;13.312;2022-09-29T15:33:22;14.10;99.90
33699;DHT22;20032;52.436;13.312;2022-09-29T15:35:52;14.10;99.90
33699;DHT22;20032;52.436;13.312;2022-09-29T15:40:54;14.00;99.90
33699;DHT22;20032;52.436;13.312;2022-09-29T15:43:22;14.00;99.90
33699;DHT22;20032;52.436;13.312;2022-09-29T15:45:53;14.00;99.90
33699;DHT22;20032;52.436;13.312;2022-09-29T15:48:20;13.90;99.90
33699;DHT22;20032;52.436;13.312;2022-09-29T15:50:46;13.90;99.90
33699;DHT22;20032;52.436;13.312;2022-09-29T15:53:11;13.90;99.90
33699;DHT22;20032;52.436;13.312;2022-09-29T15:55:37;13.80;99.90
33699;DHT22;20032;52.436;13.312;2022-09-29T16:00:57;13.80;99.90
33699;DHT22;20032;52.436;13.312;2022-09-29T16:03:33;13.70;99.90
33699;DHT22;20032;52.436;13.312;2022-09-29T16:06:05;13.60;99.90
33699;DHT22;20032;52.436;13.312;2022-09-29T16:08:37;13.50;99.90
33699;DHT22;20032;52.436;13.312;2022-09-29T16:11:06;13.50;99.90
33699;DHT22;20032;52.436;13.312;2022-09-29T16:13:37;13.40;99.90
33699;DHT22;20032;52.436;13.312;2022-09-29T16:16:07;13.40;99.90
33699;DHT22;20032;52.436;13.312;2022-09-29T16:21:07;13.30;99.90
33699;DHT22;20032;52.436;13.312;2022-09-29T16:23:46;13.30;99.90
33699;DHT22;20032;52.436;13.312;2022-09-29T16:26:16;13.20;99.90
33699;DHT22;20032;52.436;13.312;2022-09-29T16:29:04;13.10;99.90
33699;DHT22;20032;52.436;13.312;2022-09-29T16:31:30;13.00;99.90
33699;DHT22;20032;52.436;13.312;2022-09-29T16:33:58;13.00;99.90
33699;DHT22;20032;52.436;13.312;2022-09-29T16:36:28;12.90;99.90
33699;DHT22;20032;52.436;13.312;2022-09-29T16:38:59;12.90;99.90
33699;DHT22;20032;52.436;13.312;2022-09-29T16:41:34;12.90;99.90
33699;DHT22;20032;52.436;13.312;2022-09-29T16:44:04;12.80;99.90
33699;DHT22;20032;52.436;13.312;2022-09-29T16:46:31;12.70;99.90
33699;DHT22;20032;52.436;13.312;2022-09-29T16:48:58;12.70;99.90
33699;DHT22;20032;52.436;13.312;2022-09-29T16:51:23;12.60;99.90
33699;DHT22;20032;52.436;13.312;2022-09-29T16:53:50;12.50;99.90
33699;DHT22;20032;52.436;13.312;2022-09-29T16:56:31;12.40;99.90
33699;DHT22;20032;52.436;13.312;2022-09-29T16:59:07;12.30;99.90
33699;DHT22;20032;52.436;13.312;2022-09-29T17:01:35;12.30;99.90
33699;DHT22;20032;52.436;13.312;2022-09-29T17:04:01;12.20;99.90
33699;DHT22;20032;52.436;13.312;2022-09-29T17:06:27;12.20;99.90
33699;DHT22;20032;52.436;13.312;2022-09-29T17:08:53;12.20;99.90
33699;DHT22;20032;52.436;13.312;2022-09-29T17:11:19;12.10;99.90